sensor_id;sensor_type;location;lat;lon;timestamp;temperature;humidity
3678;DHT22;1855;50.934;6.958;2023-05-29T00:01:53;17.40;66.80
3678;DHT22;1855;50.934;6.958;2023-05-29T00:04:20;17.40;67.10
3678;DHT22;1855;50.934;6.958;2023-05-29T00:06:47;17.40;67.80
3678;DHT22;1855;50.934;6.958;2023-05-29T00:09:14;17.30;67.30
3678;DHT22;1855;50.934;6.958;2023-05-29T00:11:42;17.30;67.80
3678;DHT22;1855;50.934;6.958;2023-05-29T00:14:09;17.20;67.70
3678;DHT22;1855;50.934;6.958;2023-05-29T00:16:39;17.20;68.50
3678;DHT22;1855;50.934;6.958;2023-05-29T00:19:06;17.10;68.50
3678;DHT22;1855;50.934;6.958;2023-05-29T00:21:34;17.10;68.60
3678;DHT22;1855;50.934;6.958;2023-05-29T00:24:01;17.10;68.30
3678;DHT22;1855;50.934;6.958;2023-05-29T00:26:27;17.00;68.90
3678;DHT22;1855;50.934;6.958;2023-05-29T00:28:55;17.00;69.20
3678;DHT22;1855;50.934;6.958;2023-05-29T00:31:22;17.00;69.20
3678;DHT22;1855;50.934;6.958;2023-05-29T00:33:49;16.90;69.50
3678;DHT22;1855;50.934;6.958;2023-05-29T00:36:16;16.90;69.50
3678;DHT22;1855;50.934;6.958;2023-05-29T00:38:44;16.90;69.30
3678;DHT22;1855;50.934;6.958;2023-05-29T00:41:13;16.80;69.30
3678;DHT22;1855;50.934;6.958;2023-05-29T00:43:40;16.70;69.30
3678;DHT22;1855;50.934;6.958;2023-05-29T00:46:09;16.70;69.50
3678;DHT22;1855;50.934;6.958;2023-05-29T00:48:36;16.70;69.90
3678;DHT22;1855;50.934;6.958;2023-05-29T00:51:03;16.70;69.90
3678;DHT22;1855;50.934;6.958;2023-05-29T00:53:30;16.60;70.30
3678;DHT22;1855;50.934;6.958;2023-05-29T00:55:58;16.50;70.30
3678;DHT22;1855;50.934;6.958;2023-05-29T00:58:26;16.50;70.80
3678;DHT22;1855;50.934;6.958;2023-05-29T01:00:53;16.50;71.10
3678;DHT22;1855;50.934;6.958;2023-05-29T01:03:21;16.50;70.70
3678;DHT22;1855;50.934;6.958;2023-05-29T01:05:49;16.50;70.30
3678;DHT22;1855;50.934;6.958;2023-05-29T01:08:17;16.40;70.50
3678;DHT22;1855;50.934;6.958;2023-05-29T01:10:44;16.40;70.90
3678;DHT22;1855;50.934;6.958;2023-05-29T01:13:15;16.40;71.20
3678;DHT22;1855;50.934;6.958;2023-05-29T01:15:48;16.30;71.00
3678;DHT22;1855;50.934;6.958;2023-05-29T01:18:31;16.20;70.90
3678;DHT22;1855;50.934;6.958;2023-05-29T01:21:04;16.20;71.40
3678;DHT22;1855;50.934;6.958;2023-05-29T01:23:53;16.20;71.60
3678;DHT22;1855;50.934;6.958;2023-05-29T01:26:42;16.20;71.70
3678;DHT22;1855;50.934;6.958;2023-05-29T01:29:14;16.10;71.70
3678;DHT22;1855;50.934;6.958;2023-05-29T01:31:42;16.10;71.80
3678;DHT22;1855;50.934;6.958;2023-05-29T01:34:10;16.10;72.00
3678;DHT22;1855;50.934;6.958;2023-05-29T01:36:36;16.10;71.80
3678;DHT22;1855;50.934;6.958;2023-05-29T01:39:04;16.00;71.90
3678;DHT22;1855;50.934;6.958;2023-05-29T01:41:31;16.00;72.40
3678;DHT22;1855;50.934;6.958;2023-05-29T01:44:02;16.00;72.00
3678;DHT22;1855;50.934;6.958;2023-05-29T01:46:29;15.90;72.40
3678;DHT22;1855;50.934;6.958;2023-05-29T01:48:56;15.90;72.20
3678;DHT22;1855;50.934;6.958;2023-05-29T01:51:23;15.90;72.20
3678;DHT22;1855;50.934;6.958;2023-05-29T01:53:49;15.90;71.40
3678;DHT22;1855;50.934;6.958;2023-05-29T01:56:16;15.80;71.10
3678;DHT22;1855;50.934;6.958;2023-05-29T01:58:43;15.70;71.60
3678;DHT22;1855;50.934;6.958;2023-05-29T02:01:11;15.70;71.80
3678;DHT22;1855;50.934;6.958;2023-05-29T02:03:38;15.70;72.20
3678;DHT22;1855;50.934;6.958;2023-05-29T02:06:05;15.60;72.20
3678;DHT22;1855;50.934;6.958;2023-05-29T02:08:32;15.60;72.30
3678;DHT22;1855;50.934;6.958;2023-05-29T02:10:59;15.60;72.20
3678;DHT22;1855;50.934;6.958;2023-05-29T02:13:26;15.60;71.80
3678;DHT22;1855;50.934;6.958;2023-05-29T02:15:52;15.60;71.90
3678;DHT22;1855;50.934;6.958;2023-05-29T02:18:20;15.60;71.60
3678;DHT22;1855;50.934;6.958;2023-05-29T02:20:47;15.50;71.10
3678;DHT22;1855;50.934;6.958;2023-05-29T02:23:14;15.50;71.30
3678;DHT22;1855;50.934;6.958;2023-05-29T02:25:41;15.50;71.20
3678;DHT22;1855;50.934;6.958;2023-05-29T02:28:08;15.40;71.10
3678;DHT22;1855;50.934;6.958;2023-05-29T02:30:34;15.40;70.90
3678;DHT22;1855;50.934;6.958;2023-05-29T02:33:01;15.30;71.10
3678;DHT22;1855;50.934;6.958;2023-05-29T02:35:30;15.30;71.20
3678;DHT22;1855;50.934;6.958;2023-05-29T02:37:56;15.30;71.50
3678;DHT22;1855;50.934;6.958;2023-05-29T02:40:23;15.20;71.00
3678;DHT22;1855;50.934;6.958;2023-05-29T02:42:50;15.10;71.40
3678;DHT22;1855;50.934;6.958;2023-05-29T02:45:17;15.00;72.80
3678;DHT22;1855;50.934;6.958;2023-05-29T02:47:44;15.00;71.90
3678;DHT22;1855;50.934;6.958;2023-05-29T02:50:11;15.00;72.30
3678;DHT22;1855;50.934;6.958;2023-05-29T02:52:41;14.90;72.50
3678;DHT22;1855;50.934;6.958;2023-05-29T02:55:08;14.90;72.70
3678;DHT22;1855;50.934;6.958;2023-05-29T02:57:35;14.90;73.10
3678;DHT22;1855;50.934;6.958;2023-05-29T03:00:02;14.80;73.10
3678;DHT22;1855;50.934;6.958;2023-05-29T03:02:32;14.80;73.50
3678;DHT22;1855;50.934;6.958;2023-05-29T03:04:59;14.70;73.90
3678;DHT22;1855;50.934;6.958;2023-05-29T03:07:26;14.70;73.60
3678;DHT22;1855;50.934;6.958;2023-05-29T03:09:54;14.70;73.60
3678;DHT22;1855;50.934;6.958;2023-05-29T03:12:20;14.60;73.90
3678;DHT22;1855;50.934;6.958;2023-05-29T03:14:47;14.60;74.20
3678;DHT22;1855;50.934;6.958;2023-05-29T03:17:14;14.60;74.20
3678;DHT22;1855;50.934;6.958;2023-05-29T03:19:41;14.50;74.40
3678;DHT22;1855;50.934;6.958;2023-05-29T03:22:08;14.50;75.00
3678;DHT22;1855;50.934;6.958;2023-05-29T03:24:34;14.50;74.70
3678;DHT22;1855;50.934;6.958;2023-05-29T03:27:03;14.40;74.80
3678;DHT22;1855;50.934;6.958;2023-05-29T03:29:31;14.40;75.50
3678;DHT22;1855;50.934;6.958;2023-05-29T03:31:57;14.40;76.10
3678;DHT22;1855;50.934;6.958;2023-05-29T03:34:24;14.30;76.00
3678;DHT22;1855;50.934;6.958;2023-05-29T03:36:52;14.30;76.10
3678;DHT22;1855;50.934;6.958;2023-05-29T03:39:18;14.30;76.10
3678;DHT22;1855;50.934;6.958;2023-05-29T03:41:45;14.30;76.50
3678;DHT22;1855;50.934;6.958;2023-05-29T03:44:13;14.20;76.80
3678;DHT22;1855;50.934;6.958;2023-05-29T03:46:40;14.20;77.00
3678;DHT22;1855;50.934;6.958;2023-05-29T03:49:07;14.10;77.50
3678;DHT22;1855;50.934;6.958;2023-05-29T03:51:34;14.10;77.70
3678;DHT22;1855;50.934;6.958;2023-05-29T03:54:01;14.10;77.60
3678;DHT22;1855;50.934;6.958;2023-05-29T03:56:27;14.10;77.80
3678;DHT22;1855;50.934;6.958;2023-05-29T03:58:54;14.00;78.10
3678;DHT22;1855;50.934;6.958;2023-05-29T04:01:22;14.00;78.40
3678;DHT22;1855;50.934;6.958;2023-05-29T04:03:49;14.00;78.60
3678;DHT22;1855;50.934;6.958;2023-05-29T04:06:16;14.00;79.00
3678;DHT22;1855;50.934;6.958;2023-05-29T04:08:43;14.00;79.20
3678;DHT22;1855;50.934;6.958;2023-05-29T04:11:10;13.90;79.10
3678;DHT22;1855;50.934;6.958;2023-05-29T04:13:39;13.90;79.50
3678;DHT22;1855;50.934;6.958;2023-05-29T04:16:06;13.90;79.90
3678;DHT22;1855;50.934;6.958;2023-05-29T04:18:34;13.90;79.60
3678;DHT22;1855;50.934;6.958;2023-05-29T04:21:01;13.90;79.70
3678;DHT22;1855;50.934;6.958;2023-05-29T04:23:27;13.90;79.60
3678;DHT22;1855;50.934;6.958;2023-05-29T04:25:54;13.90;79.40
3678;DHT22;1855;50.934;6.958;2023-05-29T04:28:21;14.00;79.30
3678;DHT22;1855;50.934;6.958;2023-05-29T04:30:49;13.90;78.90
3678;DHT22;1855;50.934;6.958;2023-05-29T04:33:17;13.90;78.90
3678;DHT22;1855;50.934;6.958;2023-05-29T04:35:47;13.90;79.30
3678;DHT22;1855;50.934;6.958;2023-05-29T04:38:15;13.90;79.30
3678;DHT22;1855;50.934;6.958;2023-05-29T04:40:42;13.80;79.50
3678;DHT22;1855;50.934;6.958;2023-05-29T04:43:10;13.80;80.10
3678;DHT22;1855;50.934;6.958;2023-05-29T04:45:36;13.80;80.30
3678;DHT22;1855;50.934;6.958;2023-05-29T04:48:03;13.80;80.10
3678;DHT22;1855;50.934;6.958;2023-05-29T04:50:30;13.80;80.00
3678;DHT22;1855;50.934;6.958;2023-05-29T04:52:59;13.80;79.70
3678;DHT22;1855;50.934;6.958;2023-05-29T04:55:25;13.80;79.80
3678;DHT22;1855;50.934;6.958;2023-05-29T04:57:53;13.80;80.00
3678;DHT22;1855;50.934;6.958;2023-05-29T05:00:20;13.90;80.00
3678;DHT22;1855;50.934;6.958;2023-05-29T05:02:49;13.90;79.90
3678;DHT22;1855;50.934;6.958;2023-05-29T05:05:16;13.90;79.80
3678;DHT22;1855;50.934;6.958;2023-05-29T05:07:43;13.90;79.40
3678;DHT22;1855;50.934;6.958;2023-05-29T05:10:11;13.90;79.60
3678;DHT22;1855;50.934;6.958;2023-05-29T05:12:38;13.90;79.60
3678;DHT22;1855;50.934;6.958;2023-05-29T05:15:06;13.90;80.10
3678;DHT22;1855;50.934;6.958;2023-05-29T05:17:33;13.90;80.30
3678;DHT22;1855;50.934;6.958;2023-05-29T05:19:59;13.90;80.30
3678;DHT22;1855;50.934;6.958;2023-05-29T05:22:26;13.90;80.30
3678;DHT22;1855;50.934;6.958;2023-05-29T05:24:53;14.00;80.60
3678;DHT22;1855;50.934;6.958;2023-05-29T05:27:21;14.00;80.30
3678;DHT22;1855;50.934;6.958;2023-05-29T05:29:47;14.00;80.00
3678;DHT22;1855;50.934;6.958;2023-05-29T05:32:14;14.00;80.40
3678;DHT22;1855;50.934;6.958;2023-05-29T05:34:41;14.00;80.80
3678;DHT22;1855;50.934;6.958;2023-05-29T05:37:08;14.10;81.00
3678;DHT22;1855;50.934;6.958;2023-05-29T05:39:35;14.10;80.60
3678;DHT22;1855;50.934;6.958;2023-05-29T05:42:02;14.10;81.00
3678;DHT22;1855;50.934;6.958;2023-05-29T05:44:30;14.20;82.00
3678;DHT22;1855;50.934;6.958;2023-05-29T05:46:57;14.30;81.00
3678;DHT22;1855;50.934;6.958;2023-05-29T05:49:24;14.30;80.40
3678;DHT22;1855;50.934;6.958;2023-05-29T05:51:50;14.30;79.90
3678;DHT22;1855;50.934;6.958;2023-05-29T05:54:17;14.30;79.70
3678;DHT22;1855;50.934;6.958;2023-05-29T05:56:44;14.40;80.20
3678;DHT22;1855;50.934;6.958;2023-05-29T05:59:10;14.40;79.30
3678;DHT22;1855;50.934;6.958;2023-05-29T06:01:38;14.40;79.50
3678;DHT22;1855;50.934;6.958;2023-05-29T06:04:06;14.50;79.10
3678;DHT22;1855;50.934;6.958;2023-05-29T06:06:34;14.50;78.70
3678;DHT22;1855;50.934;6.958;2023-05-29T06:09:01;14.50;78.50
3678;DHT22;1855;50.934;6.958;2023-05-29T06:11:29;14.60;77.90
3678;DHT22;1855;50.934;6.958;2023-05-29T06:13:57;14.60;77.50
3678;DHT22;1855;50.934;6.958;2023-05-29T06:16:24;14.60;78.30
3678;DHT22;1855;50.934;6.958;2023-05-29T06:18:52;14.70;78.70
3678;DHT22;1855;50.934;6.958;2023-05-29T06:21:18;14.70;78.70
3678;DHT22;1855;50.934;6.958;2023-05-29T06:23:46;14.80;78.20
3678;DHT22;1855;50.934;6.958;2023-05-29T06:26:13;14.80;77.50
3678;DHT22;1855;50.934;6.958;2023-05-29T06:28:41;14.90;77.60
3678;DHT22;1855;50.934;6.958;2023-05-29T06:31:08;15.00;77.00
3678;DHT22;1855;50.934;6.958;2023-05-29T06:33:35;15.00;76.20
3678;DHT22;1855;50.934;6.958;2023-05-29T06:36:04;15.10;75.70
3678;DHT22;1855;50.934;6.958;2023-05-29T06:38:31;15.10;75.10
3678;DHT22;1855;50.934;6.958;2023-05-29T06:40:57;15.20;75.80
3678;DHT22;1855;50.934;6.958;2023-05-29T06:43:25;15.30;76.20
3678;DHT22;1855;50.934;6.958;2023-05-29T06:45:52;15.30;75.30
3678;DHT22;1855;50.934;6.958;2023-05-29T06:48:18;15.40;74.50
3678;DHT22;1855;50.934;6.958;2023-05-29T06:50:46;15.50;74.30
3678;DHT22;1855;50.934;6.958;2023-05-29T06:53:14;15.60;73.60
3678;DHT22;1855;50.934;6.958;2023-05-29T06:55:41;15.70;73.50
3678;DHT22;1855;50.934;6.958;2023-05-29T06:58:08;15.80;72.10
3678;DHT22;1855;50.934;6.958;2023-05-29T07:00:35;15.80;72.50
3678;DHT22;1855;50.934;6.958;2023-05-29T07:03:01;16.00;71.70
3678;DHT22;1855;50.934;6.958;2023-05-29T07:05:28;16.10;71.00
3678;DHT22;1855;50.934;6.958;2023-05-29T07:07:55;16.20;70.80
3678;DHT22;1855;50.934;6.958;2023-05-29T07:10:23;16.30;69.40
3678;DHT22;1855;50.934;6.958;2023-05-29T07:12:50;16.40;69.10
3678;DHT22;1855;50.934;6.958;2023-05-29T07:15:16;16.50;69.00
3678;DHT22;1855;50.934;6.958;2023-05-29T07:17:43;16.60;68.40
3678;DHT22;1855;50.934;6.958;2023-05-29T07:20:10;16.80;67.90
3678;DHT22;1855;50.934;6.958;2023-05-29T07:22:37;16.80;66.60
3678;DHT22;1855;50.934;6.958;2023-05-29T07:25:05;17.00;66.00
3678;DHT22;1855;50.934;6.958;2023-05-29T07:27:33;17.10;65.80
3678;DHT22;1855;50.934;6.958;2023-05-29T07:30:01;17.20;65.60
3678;DHT22;1855;50.934;6.958;2023-05-29T07:32:27;17.30;64.90
3678;DHT22;1855;50.934;6.958;2023-05-29T07:34:54;17.50;64.50
3678;DHT22;1855;50.934;6.958;2023-05-29T07:37:21;17.60;64.20
3678;DHT22;1855;50.934;6.958;2023-05-29T07:39:48;17.80;63.00
3678;DHT22;1855;50.934;6.958;2023-05-29T07:42:14;17.90;62.50
3678;DHT22;1855;50.934;6.958;2023-05-29T07:44:43;18.10;61.40
3678;DHT22;1855;50.934;6.958;2023-05-29T07:47:09;18.20;61.40
3678;DHT22;1855;50.934;6.958;2023-05-29T07:49:36;18.30;59.50
3678;DHT22;1855;50.934;6.958;2023-05-29T07:52:03;18.30;59.80
3678;DHT22;1855;50.934;6.958;2023-05-29T07:54:30;18.40;60.50
3678;DHT22;1855;50.934;6.958;2023-05-29T07:56:58;18.50;59.00
3678;DHT22;1855;50.934;6.958;2023-05-29T07:59:25;18.60;59.20
3678;DHT22;1855;50.934;6.958;2023-05-29T08:01:53;18.80;58.90
3678;DHT22;1855;50.934;6.958;2023-05-29T08:04:23;18.90;57.90
3678;DHT22;1855;50.934;6.958;2023-05-29T08:06:50;19.10;57.60
3678;DHT22;1855;50.934;6.958;2023-05-29T08:09:17;19.30;57.00
3678;DHT22;1855;50.934;6.958;2023-05-29T08:11:44;19.40;55.00
3678;DHT22;1855;50.934;6.958;2023-05-29T08:14:11;19.40;55.20
3678;DHT22;1855;50.934;6.958;2023-05-29T08:16:38;19.50;55.10
3678;DHT22;1855;50.934;6.958;2023-05-29T08:19:06;19.70;54.70
3678;DHT22;1855;50.934;6.958;2023-05-29T08:21:33;19.90;54.30
3678;DHT22;1855;50.934;6.958;2023-05-29T08:24:02;20.10;53.60
3678;DHT22;1855;50.934;6.958;2023-05-29T08:26:30;20.30;52.50
3678;DHT22;1855;50.934;6.958;2023-05-29T08:28:57;20.40;50.80
3678;DHT22;1855;50.934;6.958;2023-05-29T08:31:23;20.40;50.50
3678;DHT22;1855;50.934;6.958;2023-05-29T08:33:50;20.40;50.90
3678;DHT22;1855;50.934;6.958;2023-05-29T08:36:19;20.50;51.00
3678;DHT22;1855;50.934;6.958;2023-05-29T08:38:46;20.70;50.40
3678;DHT22;1855;50.934;6.958;2023-05-29T08:41:17;20.80;49.40
3678;DHT22;1855;50.934;6.958;2023-05-29T08:43:47;20.90;48.60
3678;DHT22;1855;50.934;6.958;2023-05-29T08:46:18;21.00;48.70
3678;DHT22;1855;50.934;6.958;2023-05-29T08:48:48;21.10;48.50
3678;DHT22;1855;50.934;6.958;2023-05-29T08:51:18;21.20;48.80
3678;DHT22;1855;50.934;6.958;2023-05-29T08:53:46;21.40;48.20
3678;DHT22;1855;50.934;6.958;2023-05-29T08:56:13;21.50;47.00
3678;DHT22;1855;50.934;6.958;2023-05-29T08:58:41;21.50;47.10
3678;DHT22;1855;50.934;6.958;2023-05-29T09:01:09;21.70;47.00
3678;DHT22;1855;50.934;6.958;2023-05-29T09:03:36;21.80;46.70
3678;DHT22;1855;50.934;6.958;2023-05-29T09:06:04;21.90;46.00
3678;DHT22;1855;50.934;6.958;2023-05-29T09:08:33;22.00;45.60
3678;DHT22;1855;50.934;6.958;2023-05-29T09:11:00;22.00;45.40
3678;DHT22;1855;50.934;6.958;2023-05-29T09:13:27;22.10;45.00
3678;DHT22;1855;50.934;6.958;2023-05-29T09:15:57;22.10;45.00
3678;DHT22;1855;50.934;6.958;2023-05-29T09:18:28;22.10;45.10
3678;DHT22;1855;50.934;6.958;2023-05-29T09:20:55;22.20;45.00
3678;DHT22;1855;50.934;6.958;2023-05-29T09:23:21;22.20;45.50
3678;DHT22;1855;50.934;6.958;2023-05-29T09:25:53;22.30;44.80
3678;DHT22;1855;50.934;6.958;2023-05-29T09:28:21;22.50;45.30
3678;DHT22;1855;50.934;6.958;2023-05-29T09:30:49;22.70;43.50
3678;DHT22;1855;50.934;6.958;2023-05-29T09:33:16;22.70;43.90
3678;DHT22;1855;50.934;6.958;2023-05-29T09:35:44;22.70;44.20
3678;DHT22;1855;50.934;6.958;2023-05-29T09:38:12;22.90;43.60
3678;DHT22;1855;50.934;6.958;2023-05-29T09:40:40;22.90;43.40
3678;DHT22;1855;50.934;6.958;2023-05-29T09:43:11;23.10;43.60
3678;DHT22;1855;50.934;6.958;2023-05-29T09:45:39;23.40;42.30
3678;DHT22;1855;50.934;6.958;2023-05-29T09:48:06;23.70;41.90
3678;DHT22;1855;50.934;6.958;2023-05-29T09:50:34;23.80;41.30
3678;DHT22;1855;50.934;6.958;2023-05-29T09:53:01;23.80;41.00
3678;DHT22;1855;50.934;6.958;2023-05-29T09:55:30;23.80;41.40
3678;DHT22;1855;50.934;6.958;2023-05-29T09:57:58;23.80;41.10
3678;DHT22;1855;50.934;6.958;2023-05-29T10:00:27;23.90;41.00
3678;DHT22;1855;50.934;6.958;2023-05-29T10:02:54;24.10;41.00
3678;DHT22;1855;50.934;6.958;2023-05-29T10:05:21;24.30;40.90
3678;DHT22;1855;50.934;6.958;2023-05-29T10:07:49;24.40;40.00
3678;DHT22;1855;50.934;6.958;2023-05-29T10:10:19;24.60;39.90
3678;DHT22;1855;50.934;6.958;2023-05-29T10:12:48;24.70;39.60
3678;DHT22;1855;50.934;6.958;2023-05-29T10:15:16;24.70;39.40
3678;DHT22;1855;50.934;6.958;2023-05-29T10:17:49;24.50;39.20
3678;DHT22;1855;50.934;6.958;2023-05-29T10:20:17;24.50;39.70
3678;DHT22;1855;50.934;6.958;2023-05-29T10:22:47;24.40;39.40
3678;DHT22;1855;50.934;6.958;2023-05-29T10:25:14;24.40;39.80
3678;DHT22;1855;50.934;6.958;2023-05-29T10:27:44;24.40;40.10
3678;DHT22;1855;50.934;6.958;2023-05-29T10:30:18;24.50;39.90
3678;DHT22;1855;50.934;6.958;2023-05-29T10:33:19;24.60;39.70
3678;DHT22;1855;50.934;6.958;2023-05-29T10:35:50;24.80;39.60
3678;DHT22;1855;50.934;6.958;2023-05-29T10:38:18;25.00;39.30
3678;DHT22;1855;50.934;6.958;2023-05-29T10:40:46;25.20;38.50
3678;DHT22;1855;50.934;6.958;2023-05-29T10:43:31;25.20;38.20
3678;DHT22;1855;50.934;6.958;2023-05-29T10:45:58;25.10;38.00
3678;DHT22;1855;50.934;6.958;2023-05-29T10:48:42;25.00;38.90
3678;DHT22;1855;50.934;6.958;2023-05-29T10:51:25;25.10;38.30
3678;DHT22;1855;50.934;6.958;2023-05-29T10:53:52;25.00;39.00
3678;DHT22;1855;50.934;6.958;2023-05-29T10:56:27;25.10;38.80
3678;DHT22;1855;50.934;6.958;2023-05-29T10:58:56;25.20;38.60
3678;DHT22;1855;50.934;6.958;2023-05-29T11:01:23;25.50;38.10
3678;DHT22;1855;50.934;6.958;2023-05-29T11:03:54;25.60;37.50
3678;DHT22;1855;50.934;6.958;2023-05-29T11:06:40;25.80;37.50
3678;DHT22;1855;50.934;6.958;2023-05-29T11:09:26;26.00;37.30
3678;DHT22;1855;50.934;6.958;2023-05-29T11:12:10;26.00;36.50
3678;DHT22;1855;50.934;6.958;2023-05-29T11:14:47;26.10;36.40
3678;DHT22;1855;50.934;6.958;2023-05-29T11:17:32;26.20;37.10
3678;DHT22;1855;50.934;6.958;2023-05-29T11:20:05;26.20;36.30
3678;DHT22;1855;50.934;6.958;2023-05-29T11:23:00;26.20;36.90
3678;DHT22;1855;50.934;6.958;2023-05-29T11:25:28;26.30;36.40
3678;DHT22;1855;50.934;6.958;2023-05-29T11:27:55;26.30;36.90
3678;DHT22;1855;50.934;6.958;2023-05-29T11:30:22;26.30;36.20
3678;DHT22;1855;50.934;6.958;2023-05-29T11:32:49;26.30;35.80
3678;DHT22;1855;50.934;6.958;2023-05-29T11:35:21;26.30;35.90
3678;DHT22;1855;50.934;6.958;2023-05-29T11:37:48;26.50;35.80
3678;DHT22;1855;50.934;6.958;2023-05-29T11:40:15;26.60;35.80
3678;DHT22;1855;50.934;6.958;2023-05-29T11:42:43;26.70;35.30
3678;DHT22;1855;50.934;6.958;2023-05-29T11:45:12;26.90;35.30
3678;DHT22;1855;50.934;6.958;2023-05-29T11:47:56;27.20;35.40
3678;DHT22;1855;50.934;6.958;2023-05-29T11:50:26;27.50;34.90
3678;DHT22;1855;50.934;6.958;2023-05-29T11:52:53;27.70;34.40
3678;DHT22;1855;50.934;6.958;2023-05-29T11:55:21;27.90;34.50
3678;DHT22;1855;50.934;6.958;2023-05-29T11:57:48;28.10;33.30
3678;DHT22;1855;50.934;6.958;2023-05-29T12:00:16;28.20;33.40
3678;DHT22;1855;50.934;6.958;2023-05-29T12:02:44;28.40;34.30
3678;DHT22;1855;50.934;6.958;2023-05-29T12:05:13;28.50;32.40
3678;DHT22;1855;50.934;6.958;2023-05-29T12:07:48;28.60;32.50
3678;DHT22;1855;50.934;6.958;2023-05-29T12:10:16;28.60;32.80
3678;DHT22;1855;50.934;6.958;2023-05-29T12:12:47;28.70;32.70
3678;DHT22;1855;50.934;6.958;2023-05-29T12:15:14;28.80;32.40
3678;DHT22;1855;50.934;6.958;2023-05-29T12:17:43;28.90;31.90
3678;DHT22;1855;50.934;6.958;2023-05-29T12:20:11;29.10;31.50
3678;DHT22;1855;50.934;6.958;2023-05-29T12:22:39;29.20;31.50
3678;DHT22;1855;50.934;6.958;2023-05-29T12:25:10;29.50;31.40
3678;DHT22;1855;50.934;6.958;2023-05-29T12:27:38;29.70;30.60
3678;DHT22;1855;50.934;6.958;2023-05-29T12:30:09;29.80;30.60
3678;DHT22;1855;50.934;6.958;2023-05-29T12:32:37;29.70;30.60
3678;DHT22;1855;50.934;6.958;2023-05-29T12:35:12;29.70;30.50
3678;DHT22;1855;50.934;6.958;2023-05-29T12:37:46;29.70;30.10
3678;DHT22;1855;50.934;6.958;2023-05-29T12:40:19;29.80;30.20
3678;DHT22;1855;50.934;6.958;2023-05-29T12:42:46;29.80;30.30
3678;DHT22;1855;50.934;6.958;2023-05-29T12:45:14;30.00;30.20
3678;DHT22;1855;50.934;6.958;2023-05-29T12:47:52;30.20;29.60
3678;DHT22;1855;50.934;6.958;2023-05-29T12:50:20;30.40;29.40
3678;DHT22;1855;50.934;6.958;2023-05-29T12:52:56;30.80;29.40
3678;DHT22;1855;50.934;6.958;2023-05-29T12:55:25;31.20;28.70
3678;DHT22;1855;50.934;6.958;2023-05-29T12:57:52;31.40;28.50
3678;DHT22;1855;50.934;6.958;2023-05-29T13:00:20;31.70;28.30
3678;DHT22;1855;50.934;6.958;2023-05-29T13:02:47;31.90;27.80
3678;DHT22;1855;50.934;6.958;2023-05-29T13:05:14;31.80;27.60
3678;DHT22;1855;50.934;6.958;2023-05-29T13:07:41;31.90;27.70
3678;DHT22;1855;50.934;6.958;2023-05-29T13:10:09;31.80;27.30
3678;DHT22;1855;50.934;6.958;2023-05-29T13:12:37;31.90;27.20
3678;DHT22;1855;50.934;6.958;2023-05-29T13:15:05;31.90;27.50
3678;DHT22;1855;50.934;6.958;2023-05-29T13:17:32;31.60;27.40
3678;DHT22;1855;50.934;6.958;2023-05-29T13:19:59;31.30;27.80
3678;DHT22;1855;50.934;6.958;2023-05-29T13:22:26;31.20;27.70
3678;DHT22;1855;50.934;6.958;2023-05-29T13:24:57;31.10;27.70
3678;DHT22;1855;50.934;6.958;2023-05-29T13:27:24;31.10;28.10
3678;DHT22;1855;50.934;6.958;2023-05-29T13:29:52;31.10;27.90
3678;DHT22;1855;50.934;6.958;2023-05-29T13:32:19;31.30;27.80
3678;DHT22;1855;50.934;6.958;2023-05-29T13:34:45;31.30;27.70
3678;DHT22;1855;50.934;6.958;2023-05-29T13:37:12;31.30;27.40
3678;DHT22;1855;50.934;6.958;2023-05-29T13:39:39;31.50;27.00
3678;DHT22;1855;50.934;6.958;2023-05-29T13:42:07;31.60;27.30
3678;DHT22;1855;50.934;6.958;2023-05-29T13:44:33;31.80;26.90
3678;DHT22;1855;50.934;6.958;2023-05-29T13:47:02;31.80;26.60
3678;DHT22;1855;50.934;6.958;2023-05-29T13:49:28;31.80;26.50
3678;DHT22;1855;50.934;6.958;2023-05-29T13:51:55;31.80;26.60
3678;DHT22;1855;50.934;6.958;2023-05-29T13:54:22;31.90;26.10
3678;DHT22;1855;50.934;6.958;2023-05-29T13:56:49;31.90;26.60
3678;DHT22;1855;50.934;6.958;2023-05-29T13:59:15;32.10;26.30
3678;DHT22;1855;50.934;6.958;2023-05-29T14:01:42;32.20;25.80
3678;DHT22;1855;50.934;6.958;2023-05-29T14:04:11;32.30;25.90
3678;DHT22;1855;50.934;6.958;2023-05-29T14:06:38;32.50;25.90
3678;DHT22;1855;50.934;6.958;2023-05-29T14:09:05;32.80;25.40
3678;DHT22;1855;50.934;6.958;2023-05-29T14:11:35;33.00;25.60
3678;DHT22;1855;50.934;6.958;2023-05-29T14:14:02;33.20;25.70
3678;DHT22;1855;50.934;6.958;2023-05-29T14:16:29;33.60;25.30
3678;DHT22;1855;50.934;6.958;2023-05-29T14:18:56;33.70;25.10
3678;DHT22;1855;50.934;6.958;2023-05-29T14:21:24;34.00;24.50
3678;DHT22;1855;50.934;6.958;2023-05-29T14:23:51;33.80;25.00
3678;DHT22;1855;50.934;6.958;2023-05-29T14:26:18;33.80;24.70
3678;DHT22;1855;50.934;6.958;2023-05-29T14:28:44;33.90;24.90
3678;DHT22;1855;50.934;6.958;2023-05-29T14:31:11;34.00;24.50
3678;DHT22;1855;50.934;6.958;2023-05-29T14:33:38;34.00;24.30
3678;DHT22;1855;50.934;6.958;2023-05-29T14:36:05;33.80;24.70
3678;DHT22;1855;50.934;6.958;2023-05-29T14:38:33;33.60;24.60
3678;DHT22;1855;50.934;6.958;2023-05-29T14:41:01;33.40;24.80
3678;DHT22;1855;50.934;6.958;2023-05-29T14:43:28;33.30;24.80
3678;DHT22;1855;50.934;6.958;2023-05-29T14:45:54;33.40;25.00
3678;DHT22;1855;50.934;6.958;2023-05-29T14:48:21;33.40;24.70
3678;DHT22;1855;50.934;6.958;2023-05-29T14:50:48;33.40;24.70
3678;DHT22;1855;50.934;6.958;2023-05-29T14:53:15;33.30;25.70
3678;DHT22;1855;50.934;6.958;2023-05-29T14:55:43;33.20;25.20
3678;DHT22;1855;50.934;6.958;2023-05-29T14:58:09;33.00;25.60
3678;DHT22;1855;50.934;6.958;2023-05-29T15:00:38;32.80;25.50
3678;DHT22;1855;50.934;6.958;2023-05-29T15:03:05;32.40;25.80
3678;DHT22;1855;50.934;6.958;2023-05-29T15:05:32;32.00;26.10
3678;DHT22;1855;50.934;6.958;2023-05-29T15:07:59;31.50;26.40
3678;DHT22;1855;50.934;6.958;2023-05-29T15:10:26;31.30;26.50
3678;DHT22;1855;50.934;6.958;2023-05-29T15:12:54;31.10;26.80
3678;DHT22;1855;50.934;6.958;2023-05-29T15:15:23;31.10;26.90
3678;DHT22;1855;50.934;6.958;2023-05-29T15:17:50;30.80;26.90
3678;DHT22;1855;50.934;6.958;2023-05-29T15:20:19;30.40;27.40
3678;DHT22;1855;50.934;6.958;2023-05-29T15:22:46;30.30;27.40
3678;DHT22;1855;50.934;6.958;2023-05-29T15:25:14;30.30;27.10
3678;DHT22;1855;50.934;6.958;2023-05-29T15:27:41;30.40;27.60
3678;DHT22;1855;50.934;6.958;2023-05-29T15:32:38;30.30;27.30
3678;DHT22;1855;50.934;6.958;2023-05-29T15:35:06;30.10;27.60
3678;DHT22;1855;50.934;6.958;2023-05-29T15:37:33;29.60;27.70
3678;DHT22;1855;50.934;6.958;2023-05-29T15:40:00;29.60;28.20
3678;DHT22;1855;50.934;6.958;2023-05-29T15:42:28;29.60;28.30
3678;DHT22;1855;50.934;6.958;2023-05-29T15:44:54;29.20;28.10
3678;DHT22;1855;50.934;6.958;2023-05-29T15:47:21;28.70;28.50
3678;DHT22;1855;50.934;6.958;2023-05-29T15:49:50;28.30;29.20
3678;DHT22;1855;50.934;6.958;2023-05-29T15:52:17;28.20;29.70
3678;DHT22;1855;50.934;6.958;2023-05-29T15:54:43;28.00;29.80
3678;DHT22;1855;50.934;6.958;2023-05-29T15:57:10;27.80;29.70
3678;DHT22;1855;50.934;6.958;2023-05-29T15:59:37;27.80;30.00
3678;DHT22;1855;50.934;6.958;2023-05-29T16:02:04;27.80;29.90
3678;DHT22;1855;50.934;6.958;2023-05-29T16:04:31;27.90;29.70
3678;DHT22;1855;50.934;6.958;2023-05-29T16:06:59;28.00;30.10
3678;DHT22;1855;50.934;6.958;2023-05-29T16:09:27;28.30;29.60
3678;DHT22;1855;50.934;6.958;2023-05-29T16:11:54;28.40;29.50